createdAt,value
2022-10-08T00:01:17.335Z,90.30
2022-10-08T00:03:47.780Z,90.40
2022-10-08T00:06:23.490Z,90.50
2022-10-08T00:08:54.954Z,90.60
2022-10-08T00:11:31.332Z,90.50
2022-10-08T00:13:59.282Z,90.50
2022-10-08T00:16:30.474Z,90.50
2022-10-08T00:19:08.033Z,90.50
2022-10-08T00:21:38.034Z,90.70
2022-10-08T00:24:07.470Z,90.50
2022-10-08T00:26:39.961Z,90.50
2022-10-08T00:29:13.850Z,90.90
2022-10-08T00:31:45.923Z,90.60
2022-10-08T00:34:23.237Z,90.60
2022-10-08T00:36:55.098Z,90.80
2022-10-08T00:39:24.576Z,90.70
2022-10-08T00:41:55.376Z,90.60
2022-10-08T00:44:46.636Z,90.50
2022-10-08T00:47:33.438Z,90.70
2022-10-08T00:50:21.267Z,90.60
2022-10-08T00:53:07.703Z,90.60
2022-10-08T00:55:42.575Z,90.60
2022-10-08T00:58:20.140Z,90.50
2022-10-08T01:00:48.263Z,90.60
2022-10-08T01:03:15.260Z,90.50
2022-10-08T01:06:22.487Z,90.50
2022-10-08T01:09:07.137Z,90.90
2022-10-08T01:11:49.447Z,90.60
2022-10-08T01:14:41.595Z,90.60
2022-10-08T01:17:30.335Z,90.80
2022-10-08T01:20:28.580Z,90.90
2022-10-08T01:23:35.043Z,91.00
2022-10-08T01:26:58.655Z,91.00
2022-10-08T01:29:36.553Z,91.00
2022-10-08T01:32:13.593Z,90.90
2022-10-08T01:35:04.157Z,90.90
2022-10-08T01:37:36.927Z,90.90
2022-10-08T01:40:11.692Z,90.90
2022-10-08T01:42:41.137Z,91.00
2022-10-08T01:45:15.287Z,91.00
2022-10-08T01:47:46.028Z,91.00
2022-10-08T01:50:30.696Z,91.00
2022-10-08T01:53:04.294Z,91.00
2022-10-08T01:55:41.955Z,91.00
2022-10-08T01:58:16.018Z,91.10
2022-10-08T02:00:43.225Z,91.10
2022-10-08T02:03:13.872Z,91.00
2022-10-08T02:05:49.305Z,91.00
2022-10-08T02:08:16.729Z,91.00
2022-10-08T02:10:44.666Z,91.00
2022-10-08T02:13:12.324Z,91.10
2022-10-08T02:16:00.509Z,91.20
2022-10-08T02:18:42.117Z,91.30
2022-10-08T02:21:19.753Z,91.30
2022-10-08T02:24:21.379Z,91.40
2022-10-08T02:26:52.692Z,91.60
2022-10-08T02:29:39.639Z,91.30
2022-10-08T02:32:34.537Z,91.30
2022-10-08T02:35:25.427Z,91.30
2022-10-08T02:38:02.835Z,91.50
2022-10-08T02:40:31.299Z,91.30
2022-10-08T02:43:06.499Z,91.20
2022-10-08T02:45:41.554Z,91.30
2022-10-08T02:48:19.342Z,91.30
2022-10-08T02:50:51.378Z,91.30
2022-10-08T02:53:18.772Z,91.30
2022-10-08T02:56:19.913Z,91.30
2022-10-08T02:58:47.493Z,91.60
2022-10-08T03:01:48.337Z,91.40
2022-10-08T03:04:46.932Z,91.70
2022-10-08T03:07:15.526Z,91.80
2022-10-08T03:09:48.706Z,91.60
2022-10-08T03:12:15.646Z,91.70
2022-10-08T03:14:45.746Z,91.70
2022-10-08T03:17:17.693Z,91.70
2022-10-08T03:19:44.588Z,91.80
2022-10-08T03:22:11.850Z,91.80
2022-10-08T03:24:38.728Z,91.90
2022-10-08T03:27:05.619Z,92.10
2022-10-08T03:29:32.517Z,92.00
2022-10-08T03:31:59.405Z,92.00
2022-10-08T03:34:27.028Z,92.00
2022-10-08T03:36:53.916Z,91.90
2022-10-08T03:39:20.790Z,91.80
2022-10-08T03:41:47.670Z,91.80
2022-10-08T03:44:14.549Z,91.80
2022-10-08T03:46:41.433Z,91.70
2022-10-08T03:49:08.312Z,91.70
2022-10-08T03:51:35.333Z,91.60
2022-10-08T03:54:02.230Z,91.60
2022-10-08T03:56:29.391Z,91.60
2022-10-08T03:58:59.208Z,91.50
2022-10-08T04:01:27.849Z,91.40
2022-10-08T04:03:55.100Z,91.40
2022-10-08T04:06:22.229Z,91.30
2022-10-08T04:08:49.168Z,91.20
2022-10-08T04:11:17.752Z,91.20
2022-10-08T04:13:45.176Z,91.20
2022-10-08T04:16:15.792Z,91.10
2022-10-08T04:18:43.700Z,91.20
2022-10-08T04:21:14.988Z,91.20
2022-10-08T04:23:43.166Z,91.20
2022-10-08T04:26:12.763Z,91.20
2022-10-08T04:28:41.914Z,91.20
2022-10-08T04:31:23.232Z,91.20
2022-10-08T04:33:51.549Z,91.30
2022-10-08T04:36:22.229Z,91.30
2022-10-08T04:38:49.754Z,91.30
2022-10-08T04:41:25.799Z,91.30
2022-10-08T04:43:54.437Z,91.50
2022-10-08T04:46:22.554Z,91.50
2022-10-08T04:48:55.346Z,91.60
2022-10-08T04:51:24.554Z,91.70
2022-10-08T04:53:54.536Z,91.60
2022-10-08T04:56:28.352Z,91.80
2022-10-08T04:58:57.144Z,92.30
2022-10-08T05:01:26.025Z,92.50
2022-10-08T05:03:55.521Z,92.70
2022-10-08T05:06:29.802Z,93.20
2022-10-08T05:08:59.756Z,93.20
2022-10-08T05:11:27.604Z,93.20
2022-10-08T05:13:57.353Z,93.40
2022-10-08T05:16:25.978Z,93.40
2022-10-08T05:18:53.508Z,93.40
2022-10-08T05:21:27.748Z,93.40
2022-10-08T05:24:07.666Z,93.30
2022-10-08T05:29:24.693Z,93.50
2022-10-08T05:31:51.589Z,93.60
2022-10-08T05:34:18.488Z,93.70
2022-10-08T05:36:45.352Z,93.70
2022-10-08T05:39:12.324Z,93.70
2022-10-08T05:41:39.330Z,93.70
2022-10-08T05:44:07.074Z,93.60
2022-10-08T05:46:36.338Z,93.60
2022-10-08T05:49:06.735Z,93.60
2022-10-08T05:51:33.840Z,93.50
2022-10-08T05:54:00.957Z,93.50
2022-10-08T05:56:28.759Z,93.50
2022-10-08T05:58:55.671Z,93.60
2022-10-08T06:01:28.737Z,93.50
2022-10-08T06:04:07.205Z,93.60
2022-10-08T06:06:36.965Z,93.50
2022-10-08T06:09:04.697Z,93.50
2022-10-08T06:11:33.638Z,93.30
2022-10-08T06:14:01.774Z,93.20
2022-10-08T06:16:30.401Z,93.10
2022-10-08T06:18:57.885Z,93.10
2022-10-08T06:21:26.678Z,93.10
2022-10-08T06:24:06.409Z,93.00
2022-10-08T06:26:37.620Z,93.00
2022-10-08T06:29:07.216Z,93.00
2022-10-08T06:31:35.634Z,93.00
2022-10-08T06:34:04.511Z,93.00
2022-10-08T06:36:33.517Z,93.00
2022-10-08T06:39:05.018Z,92.90
2022-10-08T06:41:34.897Z,92.90
2022-10-08T06:44:04.303Z,92.90
2022-10-08T06:46:32.353Z,92.90
2022-10-08T06:49:01.181Z,92.90
2022-10-08T06:51:29.036Z,92.80
2022-10-08T06:54:01.460Z,92.80
2022-10-08T06:56:33.744Z,92.60
2022-10-08T06:59:00.652Z,92.40
2022-10-08T07:01:33.177Z,92.20
2022-10-08T07:04:02.296Z,91.90
2022-10-08T07:06:29.576Z,91.90
2022-10-08T07:09:00.475Z,91.70
2022-10-08T07:11:28.868Z,91.70
2022-10-08T07:13:56.517Z,91.80
2022-10-08T07:16:25.713Z,91.50
2022-10-08T07:18:54.671Z,91.50
2022-10-08T07:21:22.616Z,91.60
2022-10-08T07:23:49.658Z,91.60
2022-10-08T07:26:19.994Z,91.50
2022-10-08T07:28:54.364Z,91.60
2022-10-08T07:31:28.104Z,91.40
2022-10-08T07:33:56.419Z,91.40
2022-10-08T07:36:25.736Z,91.10
2022-10-08T07:39:08.944Z,91.00
2022-10-08T07:41:36.074Z,90.80
2022-10-08T07:44:05.029Z,90.50
2022-10-08T07:46:37.612Z,90.50
2022-10-08T07:49:04.944Z,90.50
2022-10-08T07:51:34.186Z,90.40
2022-10-08T07:54:03.392Z,90.30
2022-10-08T07:56:31.205Z,90.10
2022-10-08T07:58:59.829Z,90.00
2022-10-08T08:01:29.366Z,89.70
2022-10-08T08:04:06.071Z,89.70
2022-10-08T08:06:36.879Z,89.60
2022-10-08T08:09:04.043Z,89.60
2022-10-08T08:11:30.927Z,89.70
2022-10-08T08:13:57.975Z,89.70
2022-10-08T08:16:27.518Z,89.70
2022-10-08T08:18:58.166Z,89.60
2022-10-08T08:21:37.823Z,89.80
2022-10-08T08:24:11.259Z,89.80
2022-10-08T08:26:40.739Z,89.80
2022-10-08T08:29:18.196Z,90.00
2022-10-08T08:31:47.868Z,90.00
2022-10-08T08:34:24.998Z,90.00
2022-10-08T08:36:56.146Z,90.10
2022-10-08T08:39:26.501Z,90.10
2022-10-08T08:42:21.227Z,90.20
2022-10-08T08:44:56.820Z,90.20
2022-10-08T08:47:32.910Z,90.10
2022-10-08T08:50:26.141Z,90.00
2022-10-08T08:52:53.085Z,90.10
2022-10-08T08:55:32.485Z,90.10
2022-10-08T08:58:19.508Z,90.20
2022-10-08T09:01:02.676Z,90.20
2022-10-08T09:03:40.979Z,90.20
2022-10-08T09:06:13.068Z,90.20
2022-10-08T09:08:48.829Z,90.20
2022-10-08T09:11:20.511Z,90.30
2022-10-08T09:14:11.777Z,90.30
2022-10-08T09:16:39.678Z,90.30
2022-10-08T09:19:09.077Z,90.40
2022-10-08T09:21:36.000Z,90.40
2022-10-08T09:24:03.075Z,90.50
2022-10-08T09:26:35.489Z,90.30
2022-10-08T09:29:04.929Z,90.20
2022-10-08T09:31:39.756Z,90.10
2022-10-08T09:34:18.113Z,90.10
2022-10-08T09:37:01.276Z,90.20
2022-10-08T09:39:31.753Z,90.20
2022-10-08T09:42:07.724Z,90.20
2022-10-08T09:44:52.236Z,90.20
2022-10-08T09:47:23.925Z,90.30
2022-10-08T09:50:09.779Z,90.20
2022-10-08T09:52:40.312Z,90.00
2022-10-08T09:55:20.256Z,89.90
2022-10-08T09:57:51.529Z,89.10
2022-10-08T10:00:37.097Z,89.30
2022-10-08T10:03:16.596Z,90.00
2022-10-08T10:05:43.888Z,89.20
2022-10-08T10:08:50.882Z,88.90
2022-10-08T10:11:38.403Z,88.40
2022-10-08T10:14:16.510Z,88.40
2022-10-08T10:16:45.995Z,88.00
2022-10-08T10:19:22.781Z,87.90
2022-10-08T10:21:59.580Z,87.50
2022-10-08T10:24:48.874Z,87.00
2022-10-08T10:27:52.234Z,86.80
2022-10-08T10:30:22.899Z,86.50
2022-10-08T10:33:15.844Z,86.90
2022-10-08T10:35:54.975Z,86.00
2022-10-08T10:38:39.576Z,86.40
2022-10-08T10:41:33.202Z,86.60
2022-10-08T10:44:10.500Z,86.90
2022-10-08T10:46:46.533Z,86.50
2022-10-08T10:49:24.857Z,85.90
2022-10-08T10:52:31.722Z,86.10
2022-10-08T10:55:21.701Z,86.20
2022-10-08T10:58:19.722Z,86.60
2022-10-08T11:01:20.596Z,86.20
2022-10-08T11:04:10.460Z,85.80
2022-10-08T11:07:05.272Z,85.30
2022-10-08T11:09:51.214Z,85.30
2022-10-08T11:12:48.699Z,85.10
2022-10-08T11:15:36.793Z,85.20
2022-10-08T11:18:32.183Z,85.20
2022-10-08T11:21:16.997Z,85.00
2022-10-08T11:24:07.189Z,85.00
2022-10-08T11:26:53.471Z,85.40
2022-10-08T11:29:24.040Z,85.30
2022-10-08T11:31:52.893Z,85.80
2022-10-08T11:34:34.066Z,84.90
2022-10-08T11:37:09.548Z,84.30
2022-10-08T11:40:08.265Z,84.70
2022-10-08T11:42:48.986Z,84.30
2022-10-08T11:45:29.001Z,84.50
2022-10-08T11:47:59.037Z,84.20
2022-10-08T11:50:36.224Z,84.40
2022-10-08T11:53:16.259Z,84.30
2022-10-08T11:56:01.935Z,84.20
2022-10-08T11:58:32.019Z,84.10
2022-10-08T12:01:10.112Z,84.30
2022-10-08T12:03:43.424Z,83.80
2022-10-08T12:06:24.667Z,83.70
2022-10-08T12:09:04.331Z,84.20
2022-10-08T12:11:39.962Z,83.80
2022-10-08T12:14:12.717Z,83.30
2022-10-08T12:16:48.684Z,83.20
2022-10-08T12:19:33.930Z,84.10
2022-10-08T12:22:07.355Z,83.50
2022-10-08T12:24:53.810Z,82.60
2022-10-08T12:27:22.453Z,80.00
2022-10-08T12:30:12.695Z,80.50
2022-10-08T12:32:42.586Z,79.90
2022-10-08T12:35:27.045Z,80.30
2022-10-08T12:38:18.478Z,80.60
2022-10-08T12:41:17.640Z,80.00
2022-10-08T12:44:11.296Z,79.70
2022-10-08T12:47:30.084Z,79.80
2022-10-08T12:50:39.669Z,78.70
2022-10-08T12:53:08.411Z,78.20
2022-10-08T12:55:46.402Z,78.60
2022-10-08T12:58:22.257Z,77.70
2022-10-08T13:01:00.385Z,78.30
2022-10-08T13:03:27.528Z,77.80
2022-10-08T13:05:55.432Z,77.90
2022-10-08T13:08:39.547Z,77.40
2022-10-08T13:11:11.415Z,77.00
2022-10-08T13:13:45.887Z,77.60
2022-10-08T13:16:24.762Z,74.80
2022-10-08T13:18:59.915Z,71.80
2022-10-08T13:21:38.271Z,74.70
2022-10-08T13:24:25.369Z,77.20
2022-10-08T13:26:55.090Z,78.20
2022-10-08T13:29:21.979Z,78.60
2022-10-08T13:32:13.049Z,79.60
2022-10-08T13:34:43.435Z,82.80
2022-10-08T13:37:20.965Z,82.50
2022-10-08T13:39:57.560Z,82.80
2022-10-08T13:42:29.917Z,84.40
2022-10-08T13:44:59.857Z,85.20
2022-10-08T13:47:28.840Z,85.80
2022-10-08T13:50:01.563Z,86.20
2022-10-08T13:52:31.118Z,86.10
2022-10-08T13:55:03.290Z,86.40
2022-10-08T13:57:30.477Z,86.30
2022-10-08T13:59:57.363Z,86.80
2022-10-08T14:02:24.326Z,87.20
2022-10-08T14:04:52.787Z,87.80
2022-10-08T14:07:25.721Z,87.90
2022-10-08T14:09:55.128Z,88.50
2022-10-08T14:12:26.659Z,88.20
2022-10-08T14:14:54.422Z,88.00
2022-10-08T14:17:21.804Z,88.00
2022-10-08T14:19:49.581Z,87.90
2022-10-08T14:22:16.987Z,88.00
2022-10-08T14:24:43.910Z,88.40
2022-10-08T14:27:10.801Z,88.30
2022-10-08T14:29:37.694Z,88.00
2022-10-08T14:32:07.898Z,88.10
2022-10-08T14:34:35.681Z,88.60
2022-10-08T14:37:03.449Z,88.80
2022-10-08T14:39:30.323Z,89.20
2022-10-08T14:41:58.512Z,89.40
2022-10-08T14:44:25.399Z,89.80
2022-10-08T14:46:52.899Z,89.90
2022-10-08T14:49:20.975Z,89.90
2022-10-08T14:51:48.425Z,90.00
2022-10-08T14:54:15.368Z,90.00
2022-10-08T14:56:42.778Z,90.10
2022-10-08T14:59:12.638Z,90.10
2022-10-08T15:01:39.795Z,90.30
2022-10-08T15:04:07.511Z,90.20
2022-10-08T15:06:34.777Z,90.30
2022-10-08T15:09:01.774Z,90.60
2022-10-08T15:11:28.668Z,90.60
2022-10-08T15:13:55.666Z,90.40
2022-10-08T15:16:23.016Z,90.20
2022-10-08T15:18:50.037Z,90.30
2022-10-08T15:21:18.200Z,90.30
2022-10-08T15:23:45.218Z,90.20
2022-10-08T15:26:17.078Z,90.30
2022-10-08T15:28:46.168Z,90.40
2022-10-08T15:31:18.705Z,90.30
2022-10-08T15:33:50.958Z,90.20
2022-10-08T15:36:27.364Z,90.10
2022-10-08T15:39:01.948Z,90.10
2022-10-08T15:41:34.143Z,90.10
2022-10-08T15:44:21.928Z,90.10
2022-10-08T15:46:59.299Z,90.10
2022-10-08T15:49:37.898Z,90.10
2022-10-08T15:52:08.189Z,90.10
2022-10-08T15:54:38.660Z,90.20
2022-10-08T15:57:06.736Z,90.10
2022-10-08T15:59:34.295Z,90.30
2022-10-08T16:02:01.342Z,90.30
2022-10-08T16:04:28.323Z,90.30
2022-10-08T16:06:55.492Z,90.30
2022-10-08T16:09:23.236Z,90.40
2022-10-08T16:11:51.403Z,90.60
2022-10-08T16:14:21.959Z,90.60
2022-10-08T16:16:50.152Z,90.80
2022-10-08T16:19:25.963Z,90.80
2022-10-08T16:21:56.525Z,91.00
2022-10-08T16:24:23.749Z,91.00
2022-10-08T16:26:50.833Z,90.90
2022-10-08T16:29:18.765Z,91.10
2022-10-08T16:31:47.728Z,91.20
2022-10-08T16:34:22.012Z,91.30
2022-10-08T16:36:49.756Z,91.60
2022-10-08T16:39:21.013Z,91.50
2022-10-08T16:41:49.359Z,91.50
2022-10-08T16:44:19.259Z,91.70
2022-10-08T16:46:50.371Z,91.80
2022-10-08T16:49:26.018Z,91.90
2022-10-08T16:52:00.023Z,92.20
2022-10-08T16:54:27.836Z,92.20
2022-10-08T16:56:54.988Z,92.00
2022-10-08T16:59:25.228Z,92.10
2022-10-08T17:01:55.597Z,92.20
2022-10-08T17:04:24.967Z,92.40
2022-10-08T17:06:52.370Z,92.80
2022-10-08T17:09:20.569Z,92.60
2022-10-08T17:11:47.671Z,92.70
2022-10-08T17:14:14.575Z,92.80
2022-10-08T17:16:43.435Z,92.80
2022-10-08T17:19:11.015Z,93.10
2022-10-08T17:21:38.331Z,93.00
2022-10-08T17:24:06.104Z,93.20
2022-10-08T17:26:33.144Z,93.30
2022-10-08T17:29:09.412Z,93.30
2022-10-08T17:31:37.386Z,93.40
2022-10-08T17:34:05.735Z,93.30
2022-10-08T17:36:36.182Z,93.30
2022-10-08T17:39:07.204Z,93.30
2022-10-08T17:41:37.515Z,93.50
2022-10-08T17:44:07.232Z,93.50
2022-10-08T17:46:38.223Z,93.50
2022-10-08T17:49:06.199Z,93.60
2022-10-08T17:51:33.359Z,93.50
2022-10-08T17:54:03.755Z,93.50
2022-10-08T17:56:31.385Z,93.60
2022-10-08T17:58:58.735Z,93.50
2022-10-08T18:01:34.833Z,93.50
2022-10-08T18:04:03.757Z,93.60
2022-10-08T18:06:32.789Z,93.60
2022-10-08T18:09:06.060Z,93.50
2022-10-08T18:11:36.257Z,93.50
2022-10-08T18:14:05.363Z,93.50
2022-10-08T18:16:32.546Z,93.50
2022-10-08T18:19:01.031Z,93.50
2022-10-08T18:21:29.846Z,93.50
2022-10-08T18:23:58.772Z,93.40
2022-10-08T18:26:34.340Z,93.50
2022-10-08T18:29:05.248Z,93.50
2022-10-08T18:31:33.272Z,93.40
2022-10-08T18:34:09.648Z,93.30
2022-10-08T18:36:38.816Z,93.30
2022-10-08T18:39:18.352Z,93.30
2022-10-08T18:41:48.520Z,93.20
2022-10-08T18:44:22.012Z,93.20
2022-10-08T18:46:49.325Z,93.20
2022-10-08T18:49:30.611Z,93.10
2022-10-08T18:51:58.423Z,93.20
2022-10-08T18:54:25.660Z,93.10
2022-10-08T18:56:52.595Z,93.00
2022-10-08T18:59:19.742Z,93.00
2022-10-08T19:01:48.278Z,93.00
2022-10-08T19:04:21.849Z,92.90
2022-10-08T19:06:52.074Z,92.90
2022-10-08T19:09:19.283Z,92.90
2022-10-08T19:11:49.959Z,92.90
2022-10-08T19:14:20.351Z,92.80
2022-10-08T19:16:48.127Z,92.80
2022-10-08T19:19:24.317Z,92.80
2022-10-08T19:21:52.921Z,92.80
2022-10-08T19:24:22.913Z,92.80
2022-10-08T19:26:50.903Z,92.70
2022-10-08T19:29:24.943Z,92.70
2022-10-08T19:31:51.946Z,92.70
2022-10-08T19:34:22.760Z,92.70
2022-10-08T19:36:49.948Z,92.60
2022-10-08T19:39:27.540Z,92.60
2022-10-08T19:41:54.634Z,92.70
2022-10-08T19:44:22.509Z,92.60
2022-10-08T19:46:49.718Z,92.60
2022-10-08T19:49:17.200Z,92.60
2022-10-08T19:51:44.362Z,92.50
2022-10-08T19:54:11.864Z,92.50
2022-10-08T19:56:39.001Z,92.50
2022-10-08T19:59:06.369Z,92.50
2022-10-08T20:01:36.386Z,92.50
2022-10-08T20:04:05.782Z,92.50
2022-10-08T20:06:36.381Z,92.50
2022-10-08T20:09:05.047Z,92.50
2022-10-08T20:11:32.614Z,92.50
2022-10-08T20:14:00.948Z,92.50
2022-10-08T20:16:34.578Z,92.60
2022-10-08T20:19:08.534Z,92.70
2022-10-08T20:21:37.841Z,92.60
2022-10-08T20:24:05.524Z,92.70
2022-10-08T20:26:35.419Z,92.70
2022-10-08T20:29:06.219Z,92.90
2022-10-08T20:31:43.282Z,92.90
2022-10-08T20:34:13.563Z,93.00
2022-10-08T20:36:40.878Z,93.00
2022-10-08T20:39:07.970Z,93.10
2022-10-08T20:41:34.827Z,93.10
2022-10-08T20:44:03.579Z,93.20
2022-10-08T20:46:32.118Z,93.20
2022-10-08T20:48:59.671Z,93.20
2022-10-08T20:51:28.767Z,93.30
2022-10-08T20:54:01.920Z,93.50
2022-10-08T20:56:30.082Z,93.50
2022-10-08T20:58:57.809Z,93.60
2022-10-08T21:01:33.952Z,93.60
2022-10-08T21:04:01.035Z,93.70
2022-10-08T21:06:31.556Z,93.60
2022-10-08T21:08:59.349Z,93.60
2022-10-08T21:11:29.366Z,93.50
2022-10-08T21:13:57.679Z,93.60
2022-10-08T21:16:28.560Z,93.70
2022-10-08T21:19:02.215Z,93.60
2022-10-08T21:21:31.128Z,93.60
2022-10-08T21:23:58.805Z,93.70
2022-10-08T21:26:38.905Z,93.70
2022-10-08T21:29:10.512Z,93.70
2022-10-08T21:31:40.047Z,93.70
2022-10-08T21:34:07.055Z,93.80
2022-10-08T21:36:40.382Z,93.70
2022-10-08T21:39:10.220Z,93.70
2022-10-08T21:41:38.104Z,93.70
2022-10-08T21:44:07.511Z,93.70
2022-10-08T21:46:39.116Z,93.70
2022-10-08T21:49:13.147Z,93.80
2022-10-08T21:51:40.075Z,93.80
2022-10-08T21:54:07.620Z,93.70
2022-10-08T21:56:37.147Z,93.70
2022-10-08T21:59:06.444Z,93.70
2022-10-08T22:01:46.070Z,93.80
2022-10-08T22:04:22.650Z,93.60
2022-10-08T22:06:55.359Z,94.20
2022-10-08T22:09:28.667Z,93.80
2022-10-08T22:11:57.551Z,93.80
2022-10-08T22:14:25.230Z,93.80
2022-10-08T22:16:52.259Z,93.80
2022-10-08T22:19:19.693Z,93.90
2022-10-08T22:21:47.207Z,94.30
2022-10-08T22:24:14.286Z,94.10
2022-10-08T22:26:45.500Z,94.00
2022-10-08T22:29:12.530Z,94.10
2022-10-08T22:31:40.494Z,94.60
2022-10-08T22:34:07.903Z,94.20
2022-10-08T22:36:40.788Z,94.20
2022-10-08T22:39:08.432Z,94.60
2022-10-08T22:41:35.445Z,94.30
2022-10-08T22:44:03.661Z,94.40
2022-10-08T22:46:36.443Z,94.40
2022-10-08T22:49:09.204Z,94.40
2022-10-08T22:51:36.783Z,94.40
2022-10-08T22:54:03.817Z,94.40
2022-10-08T22:56:31.748Z,94.50
2022-10-08T22:59:00.001Z,94.50
2022-10-08T23:01:28.813Z,94.50
2022-10-08T23:03:56.295Z,94.50
2022-10-08T23:06:31.957Z,94.40
2022-10-08T23:09:08.168Z,94.50
2022-10-08T23:11:35.609Z,94.60
2022-10-08T23:14:02.836Z,94.50
2022-10-08T23:16:32.930Z,94.50
2022-10-08T23:19:07.387Z,94.50
2022-10-08T23:21:35.510Z,94.60
2022-10-08T23:24:03.411Z,94.40
2022-10-08T23:26:30.312Z,94.50
2022-10-08T23:29:00.064Z,94.40
2022-10-08T23:31:33.468Z,94.50
2022-10-08T23:34:01.328Z,94.50
2022-10-08T23:36:32.772Z,94.50
2022-10-08T23:38:59.665Z,94.60
2022-10-08T23:41:28.083Z,94.50
2022-10-08T23:43:56.417Z,94.60
2022-10-08T23:46:26.352Z,94.60
2022-10-08T23:48:53.968Z,94.60
2022-10-08T23:51:21.864Z,94.70
2022-10-08T23:53:50.602Z,94.70
2022-10-08T23:56:17.944Z,94.60
2022-10-08T23:58:44.815Z,94.70
